KTPH/TPH METAR and TAF weather

Enter ICAO airport designator
Station Type Date Time Source
KTPH METAR 2019/10/23 01:56 UTC NOAA

KTPH 230156Z AUTO 32011KT 10SM CLR 17/M06 A3027 RMK AO2 SLP225 T01671056


Station Type Date Time Source
KTPH Decoded METAR 2019/10/23 01:56 UTC NOAA

TONOPAH AIRPORT, NV, United States (KTPH) 38-02N 117-05W 1652M
Oct 22, 2019 - 09:56 PM EDT / 2019.10.23 0156 UTC
Wind: from the NW (320 degrees) at 13 MPH (11 KT):0
Visibility: 10 mile(s):0
Sky conditions: clear
Temperature: 62.1 F (16.7 C)
Dew Point: 21.9 F (-5.6 C)
Relative Humidity: 21%
Pressure (altimeter): 30.27 in. Hg (1025 hPa)
ob: KTPH 230156Z AUTO 32011KT 10SM CLR 17/M06 A3027 RMK AO2 SLP225 T01671056
cycle: 2

Station Type Date Time Source
KTPH TAF 2019/10/22 18:39 UTC NOAA

TAF KTPH 221735Z 2218/2318 00000KT P6SM SKC
FM222000 27005KT P6SM SKC
FM230700 35005KT P6SM SKC

Example: see airport list